sensor_id;sensor_type;location;lat;lon;timestamp;P1;durP1;ratioP1;P2;durP2;ratioP2
51800;SDS011;37855;53.204;6.568;2022-07-24T00:02:26;5.15;;;2.60;;
51800;SDS011;37855;53.204;6.568;2022-07-24T00:04:52;4.38;;;2.65;;
51800;SDS011;37855;53.204;6.568;2022-07-24T00:07:21;6.13;;;2.53;;
51800;SDS011;37855;53.204;6.568;2022-07-24T00:09:47;6.35;;;2.70;;
51800;SDS011;37855;53.204;6.568;2022-07-24T00:12:13;4.75;;;2.10;;
51800;SDS011;37855;53.204;6.568;2022-07-24T00:14:38;5.43;;;2.42;;
51800;SDS011;37855;53.204;6.568;2022-07-24T00:17:04;6.03;;;2.47;;
51800;SDS011;37855;53.204;6.568;2022-07-24T00:19:30;5.53;;;2.45;;
51800;SDS011;37855;53.204;6.568;2022-07-24T00:21:55;7.00;;;2.70;;
51800;SDS011;37855;53.204;6.568;2022-07-24T00:24:22;6.22;;;2.70;;
51800;SDS011;37855;53.204;6.568;2022-07-24T00:26:48;5.85;;;2.35;;
51800;SDS011;37855;53.204;6.568;2022-07-24T00:29:13;5.88;;;2.50;;
51800;SDS011;37855;53.204;6.568;2022-07-24T00:31:39;4.93;;;2.50;;
51800;SDS011;37855;53.204;6.568;2022-07-24T00:34:04;3.20;;;2.15;;
51800;SDS011;37855;53.204;6.568;2022-07-24T00:36:30;4.65;;;2.72;;
51800;SDS011;37855;53.204;6.568;2022-07-24T00:38:56;4.80;;;2.28;;
51800;SDS011;37855;53.204;6.568;2022-07-24T00:41:21;8.15;;;3.00;;
51800;SDS011;37855;53.204;6.568;2022-07-24T00:43:57;5.30;;;2.38;;
51800;SDS011;37855;53.204;6.568;2022-07-24T00:48:59;6.43;;;2.80;;
51800;SDS011;37855;53.204;6.568;2022-07-24T00:51:25;4.72;;;2.85;;
51800;SDS011;37855;53.204;6.568;2022-07-24T00:53:51;5.95;;;2.60;;
51800;SDS011;37855;53.204;6.568;2022-07-24T00:56:18;3.70;;;2.50;;
51800;SDS011;37855;53.204;6.568;2022-07-24T00:58:45;4.20;;;2.35;;
51800;SDS011;37855;53.204;6.568;2022-07-24T01:01:12;6.85;;;2.85;;
51800;SDS011;37855;53.204;6.568;2022-07-24T01:03:38;4.82;;;2.90;;
51800;SDS011;37855;53.204;6.568;2022-07-24T01:06:03;6.35;;;3.22;;
51800;SDS011;37855;53.204;6.568;2022-07-24T01:08:31;5.43;;;2.60;;
51800;SDS011;37855;53.204;6.568;2022-07-24T01:10:57;4.88;;;2.60;;
51800;SDS011;37855;53.204;6.568;2022-07-24T01:13:24;5.53;;;2.65;;
51800;SDS011;37855;53.204;6.568;2022-07-24T01:15:50;7.45;;;2.80;;
51800;SDS011;37855;53.204;6.568;2022-07-24T01:18:16;4.13;;;2.55;;
51800;SDS011;37855;53.204;6.568;2022-07-24T01:20:45;4.53;;;2.45;;
51800;SDS011;37855;53.204;6.568;2022-07-24T01:23:12;4.05;;;2.53;;
51800;SDS011;37855;53.204;6.568;2022-07-24T01:25:38;3.80;;;2.28;;
51800;SDS011;37855;53.204;6.568;2022-07-24T01:28:04;4.10;;;2.67;;
51800;SDS011;37855;53.204;6.568;2022-07-24T01:30:30;5.65;;;2.72;;
51800;SDS011;37855;53.204;6.568;2022-07-24T01:32:56;5.30;;;2.47;;
51800;SDS011;37855;53.204;6.568;2022-07-24T01:35:22;6.32;;;3.00;;
51800;SDS011;37855;53.204;6.568;2022-07-24T01:37:47;5.93;;;2.40;;
51800;SDS011;37855;53.204;6.568;2022-07-24T01:40:13;5.25;;;2.47;;
51800;SDS011;37855;53.204;6.568;2022-07-24T01:42:39;7.68;;;2.70;;
51800;SDS011;37855;53.204;6.568;2022-07-24T01:45:05;4.57;;;2.45;;
51800;SDS011;37855;53.204;6.568;2022-07-24T01:47:31;4.88;;;2.78;;
51800;SDS011;37855;53.204;6.568;2022-07-24T01:49:56;4.40;;;2.60;;
51800;SDS011;37855;53.204;6.568;2022-07-24T01:52:22;4.65;;;2.53;;
51800;SDS011;37855;53.204;6.568;2022-07-24T01:54:50;4.15;;;2.30;;
51800;SDS011;37855;53.204;6.568;2022-07-24T01:57:16;7.47;;;2.22;;
51800;SDS011;37855;53.204;6.568;2022-07-24T01:59:42;4.57;;;2.65;;
51800;SDS011;37855;53.204;6.568;2022-07-24T02:02:08;4.90;;;2.22;;
51800;SDS011;37855;53.204;6.568;2022-07-24T02:04:33;3.78;;;2.53;;
51800;SDS011;37855;53.204;6.568;2022-07-24T02:06:59;9.60;;;2.65;;
51800;SDS011;37855;53.204;6.568;2022-07-24T02:09:25;5.72;;;2.60;;
51800;SDS011;37855;53.204;6.568;2022-07-24T02:11:50;4.93;;;2.47;;
51800;SDS011;37855;53.204;6.568;2022-07-24T02:14:16;4.40;;;2.70;;
51800;SDS011;37855;53.204;6.568;2022-07-24T02:16:42;4.28;;;2.83;;
51800;SDS011;37855;53.204;6.568;2022-07-24T02:19:08;5.13;;;2.60;;
51800;SDS011;37855;53.204;6.568;2022-07-24T02:21:34;5.07;;;2.67;;
51800;SDS011;37855;53.204;6.568;2022-07-24T02:23:59;5.38;;;3.10;;
51800;SDS011;37855;53.204;6.568;2022-07-24T02:26:25;6.68;;;2.95;;
51800;SDS011;37855;53.204;6.568;2022-07-24T02:28:51;5.07;;;2.63;;
51800;SDS011;37855;53.204;6.568;2022-07-24T02:31:17;4.03;;;2.70;;
51800;SDS011;37855;53.204;6.568;2022-07-24T02:33:42;4.93;;;3.00;;
51800;SDS011;37855;53.204;6.568;2022-07-24T02:36:08;4.80;;;3.08;;
51800;SDS011;37855;53.204;6.568;2022-07-24T02:38:34;5.88;;;2.95;;
51800;SDS011;37855;53.204;6.568;2022-07-24T02:40:59;6.15;;;3.15;;
51800;SDS011;37855;53.204;6.568;2022-07-24T02:43:25;4.28;;;2.88;;
51800;SDS011;37855;53.204;6.568;2022-07-24T02:45:51;5.40;;;3.22;;
51800;SDS011;37855;53.204;6.568;2022-07-24T02:48:17;5.65;;;3.17;;
51800;SDS011;37855;53.204;6.568;2022-07-24T02:50:42;5.85;;;2.78;;
51800;SDS011;37855;53.204;6.568;2022-07-24T02:53:08;5.13;;;3.17;;
51800;SDS011;37855;53.204;6.568;2022-07-24T02:55:34;5.18;;;3.30;;
51800;SDS011;37855;53.204;6.568;2022-07-24T02:57:59;5.80;;;3.05;;
51800;SDS011;37855;53.204;6.568;2022-07-24T03:00:25;5.18;;;3.30;;
51800;SDS011;37855;53.204;6.568;2022-07-24T03:02:51;5.32;;;2.90;;
51800;SDS011;37855;53.204;6.568;2022-07-24T03:05:16;4.90;;;3.17;;
51800;SDS011;37855;53.204;6.568;2022-07-24T03:07:42;5.18;;;3.08;;
51800;SDS011;37855;53.204;6.568;2022-07-24T03:10:08;5.85;;;3.00;;
51800;SDS011;37855;53.204;6.568;2022-07-24T03:12:36;6.05;;;3.47;;
51800;SDS011;37855;53.204;6.568;2022-07-24T03:15:02;6.45;;;3.35;;
51800;SDS011;37855;53.204;6.568;2022-07-24T03:17:28;5.65;;;3.20;;
51800;SDS011;37855;53.204;6.568;2022-07-24T03:19:53;4.75;;;3.30;;
51800;SDS011;37855;53.204;6.568;2022-07-24T03:22:19;5.80;;;3.35;;
51800;SDS011;37855;53.204;6.568;2022-07-24T03:24:45;5.45;;;3.45;;
51800;SDS011;37855;53.204;6.568;2022-07-24T03:27:10;6.50;;;3.65;;
51800;SDS011;37855;53.204;6.568;2022-07-24T03:29:36;6.75;;;3.60;;
51800;SDS011;37855;53.204;6.568;2022-07-24T03:32:02;7.18;;;4.05;;
51800;SDS011;37855;53.204;6.568;2022-07-24T03:34:28;5.30;;;3.80;;
51800;SDS011;37855;53.204;6.568;2022-07-24T03:36:53;5.70;;;3.30;;
51800;SDS011;37855;53.204;6.568;2022-07-24T03:39:19;6.25;;;4.18;;
51800;SDS011;37855;53.204;6.568;2022-07-24T03:41:44;5.60;;;4.00;;
51800;SDS011;37855;53.204;6.568;2022-07-24T03:44:10;7.88;;;4.00;;
51800;SDS011;37855;53.204;6.568;2022-07-24T03:46:36;6.90;;;3.92;;
51800;SDS011;37855;53.204;6.568;2022-07-24T03:49:01;6.38;;;4.35;;
51800;SDS011;37855;53.204;6.568;2022-07-24T03:51:27;5.97;;;3.92;;
51800;SDS011;37855;53.204;6.568;2022-07-24T03:53:53;7.53;;;3.80;;
51800;SDS011;37855;53.204;6.568;2022-07-24T03:56:19;6.68;;;3.60;;
51800;SDS011;37855;53.204;6.568;2022-07-24T03:58:47;7.00;;;3.83;;
51800;SDS011;37855;53.204;6.568;2022-07-24T04:01:13;7.43;;;3.85;;
51800;SDS011;37855;53.204;6.568;2022-07-24T04:03:38;6.45;;;3.90;;
51800;SDS011;37855;53.204;6.568;2022-07-24T04:06:04;6.95;;;4.63;;
51800;SDS011;37855;53.204;6.568;2022-07-24T04:08:31;5.80;;;3.95;;
51800;SDS011;37855;53.204;6.568;2022-07-24T04:10:57;8.25;;;4.40;;
51800;SDS011;37855;53.204;6.568;2022-07-24T04:13:24;6.22;;;4.30;;
51800;SDS011;37855;53.204;6.568;2022-07-24T04:15:51;10.20;;;4.10;;
51800;SDS011;37855;53.204;6.568;2022-07-24T04:18:17;6.32;;;4.72;;
51800;SDS011;37855;53.204;6.568;2022-07-24T04:20:43;7.13;;;3.63;;
51800;SDS011;37855;53.204;6.568;2022-07-24T04:23:08;5.70;;;3.63;;
51800;SDS011;37855;53.204;6.568;2022-07-24T04:25:34;7.90;;;4.30;;
51800;SDS011;37855;53.204;6.568;2022-07-24T04:28:00;6.35;;;3.83;;
51800;SDS011;37855;53.204;6.568;2022-07-24T04:30:26;6.05;;;4.20;;
51800;SDS011;37855;53.204;6.568;2022-07-24T04:32:52;6.72;;;4.53;;
51800;SDS011;37855;53.204;6.568;2022-07-24T04:35:27;4.95;;;3.90;;
51800;SDS011;37855;53.204;6.568;2022-07-24T04:37:52;7.53;;;4.43;;
51800;SDS011;37855;53.204;6.568;2022-07-24T04:40:18;7.80;;;5.35;;
51800;SDS011;37855;53.204;6.568;2022-07-24T04:42:43;6.93;;;4.22;;
51800;SDS011;37855;53.204;6.568;2022-07-24T04:45:09;7.18;;;4.53;;
51800;SDS011;37855;53.204;6.568;2022-07-24T04:47:35;5.68;;;3.88;;
51800;SDS011;37855;53.204;6.568;2022-07-24T04:50:02;6.78;;;4.35;;
51800;SDS011;37855;53.204;6.568;2022-07-24T04:52:29;7.75;;;4.40;;
51800;SDS011;37855;53.204;6.568;2022-07-24T04:54:55;5.05;;;3.60;;
51800;SDS011;37855;53.204;6.568;2022-07-24T04:57:20;6.10;;;4.30;;
51800;SDS011;37855;53.204;6.568;2022-07-24T04:59:46;5.13;;;3.63;;
51800;SDS011;37855;53.204;6.568;2022-07-24T05:02:12;5.65;;;3.38;;
51800;SDS011;37855;53.204;6.568;2022-07-24T05:04:37;5.05;;;3.75;;
51800;SDS011;37855;53.204;6.568;2022-07-24T05:07:03;5.03;;;3.78;;
51800;SDS011;37855;53.204;6.568;2022-07-24T05:09:29;8.88;;;4.75;;
51800;SDS011;37855;53.204;6.568;2022-07-24T05:11:55;6.45;;;4.10;;
51800;SDS011;37855;53.204;6.568;2022-07-24T05:14:21;6.78;;;3.70;;
51800;SDS011;37855;53.204;6.568;2022-07-24T05:16:47;10.00;;;4.32;;
51800;SDS011;37855;53.204;6.568;2022-07-24T05:19:12;6.18;;;4.00;;
51800;SDS011;37855;53.204;6.568;2022-07-24T05:21:38;7.22;;;4.10;;
51800;SDS011;37855;53.204;6.568;2022-07-24T05:24:04;5.95;;;4.00;;
51800;SDS011;37855;53.204;6.568;2022-07-24T05:26:30;8.93;;;4.35;;
51800;SDS011;37855;53.204;6.568;2022-07-24T05:28:57;6.65;;;4.43;;
51800;SDS011;37855;53.204;6.568;2022-07-24T05:31:24;5.05;;;4.15;;
51800;SDS011;37855;53.204;6.568;2022-07-24T05:33:49;6.13;;;3.97;;
51800;SDS011;37855;53.204;6.568;2022-07-24T05:36:15;6.95;;;3.90;;
51800;SDS011;37855;53.204;6.568;2022-07-24T05:38:41;7.43;;;4.13;;
51800;SDS011;37855;53.204;6.568;2022-07-24T05:41:06;5.32;;;4.28;;
51800;SDS011;37855;53.204;6.568;2022-07-24T05:43:32;7.57;;;4.47;;
51800;SDS011;37855;53.204;6.568;2022-07-24T05:45:58;6.72;;;3.95;;
51800;SDS011;37855;53.204;6.568;2022-07-24T05:48:24;7.75;;;3.75;;
51800;SDS011;37855;53.204;6.568;2022-07-24T05:50:49;7.20;;;4.03;;
51800;SDS011;37855;53.204;6.568;2022-07-24T05:53:15;8.00;;;4.15;;
51800;SDS011;37855;53.204;6.568;2022-07-24T05:55:41;6.05;;;4.15;;
51800;SDS011;37855;53.204;6.568;2022-07-24T05:58:06;7.72;;;4.50;;
51800;SDS011;37855;53.204;6.568;2022-07-24T06:00:32;7.82;;;4.38;;
51800;SDS011;37855;53.204;6.568;2022-07-24T06:02:57;6.80;;;4.75;;
51800;SDS011;37855;53.204;6.568;2022-07-24T06:05:23;6.65;;;4.28;;
51800;SDS011;37855;53.204;6.568;2022-07-24T06:07:49;6.03;;;4.25;;
51800;SDS011;37855;53.204;6.568;2022-07-24T06:10:14;8.30;;;4.85;;
51800;SDS011;37855;53.204;6.568;2022-07-24T06:12:40;9.73;;;5.20;;
51800;SDS011;37855;53.204;6.568;2022-07-24T06:15:06;8.52;;;5.50;;
51800;SDS011;37855;53.204;6.568;2022-07-24T06:17:32;7.53;;;4.10;;
51800;SDS011;37855;53.204;6.568;2022-07-24T06:19:58;9.32;;;5.75;;
51800;SDS011;37855;53.204;6.568;2022-07-24T06:22:24;14.73;;;7.10;;
51800;SDS011;37855;53.204;6.568;2022-07-24T06:24:49;8.32;;;5.43;;
51800;SDS011;37855;53.204;6.568;2022-07-24T06:27:15;13.25;;;7.07;;
51800;SDS011;37855;53.204;6.568;2022-07-24T06:29:41;11.82;;;7.18;;
51800;SDS011;37855;53.204;6.568;2022-07-24T06:32:07;13.05;;;7.45;;
51800;SDS011;37855;53.204;6.568;2022-07-24T06:34:33;10.40;;;6.93;;
51800;SDS011;37855;53.204;6.568;2022-07-24T06:36:58;9.07;;;7.18;;
51800;SDS011;37855;53.204;6.568;2022-07-24T06:39:24;9.73;;;7.50;;
51800;SDS011;37855;53.204;6.568;2022-07-24T06:41:50;8.20;;;5.82;;
51800;SDS011;37855;53.204;6.568;2022-07-24T06:44:16;12.00;;;7.25;;
51800;SDS011;37855;53.204;6.568;2022-07-24T06:46:41;9.07;;;6.85;;
51800;SDS011;37855;53.204;6.568;2022-07-24T06:49:07;10.95;;;6.25;;
51800;SDS011;37855;53.204;6.568;2022-07-24T06:51:32;11.27;;;8.05;;
51800;SDS011;37855;53.204;6.568;2022-07-24T06:53:58;14.20;;;8.00;;
51800;SDS011;37855;53.204;6.568;2022-07-24T06:56:24;11.05;;;8.27;;
51800;SDS011;37855;53.204;6.568;2022-07-24T06:58:49;13.38;;;9.40;;
51800;SDS011;37855;53.204;6.568;2022-07-24T07:01:15;11.32;;;7.70;;
51800;SDS011;37855;53.204;6.568;2022-07-24T07:03:40;13.23;;;8.43;;
51800;SDS011;37855;53.204;6.568;2022-07-24T07:06:07;9.93;;;7.18;;
51800;SDS011;37855;53.204;6.568;2022-07-24T07:08:33;10.57;;;7.60;;
51800;SDS011;37855;53.204;6.568;2022-07-24T07:10:59;12.15;;;8.73;;
51800;SDS011;37855;53.204;6.568;2022-07-24T07:13:24;12.30;;;8.60;;
51800;SDS011;37855;53.204;6.568;2022-07-24T07:15:50;15.00;;;10.15;;
51800;SDS011;37855;53.204;6.568;2022-07-24T07:18:15;10.90;;;7.45;;
51800;SDS011;37855;53.204;6.568;2022-07-24T07:20:41;12.23;;;7.65;;
51800;SDS011;37855;53.204;6.568;2022-07-24T07:23:07;11.55;;;8.38;;
51800;SDS011;37855;53.204;6.568;2022-07-24T07:25:32;10.48;;;7.75;;
51800;SDS011;37855;53.204;6.568;2022-07-24T07:27:58;13.75;;;8.70;;
51800;SDS011;37855;53.204;6.568;2022-07-24T07:30:23;12.15;;;7.75;;
51800;SDS011;37855;53.204;6.568;2022-07-24T07:32:49;9.82;;;7.28;;
51800;SDS011;37855;53.204;6.568;2022-07-24T07:35:15;10.40;;;8.10;;
51800;SDS011;37855;53.204;6.568;2022-07-24T07:37:40;15.55;;;9.43;;
51800;SDS011;37855;53.204;6.568;2022-07-24T07:40:10;12.32;;;8.00;;
51800;SDS011;37855;53.204;6.568;2022-07-24T07:42:36;11.07;;;7.18;;
51800;SDS011;37855;53.204;6.568;2022-07-24T07:45:01;11.10;;;7.55;;
51800;SDS011;37855;53.204;6.568;2022-07-24T07:47:27;15.43;;;6.63;;
51800;SDS011;37855;53.204;6.568;2022-07-24T07:49:53;8.90;;;5.85;;
51800;SDS011;37855;53.204;6.568;2022-07-24T07:52:19;10.50;;;5.63;;
51800;SDS011;37855;53.204;6.568;2022-07-24T07:54:44;7.38;;;4.30;;
51800;SDS011;37855;53.204;6.568;2022-07-24T07:57:10;7.65;;;3.95;;
51800;SDS011;37855;53.204;6.568;2022-07-24T07:59:36;5.03;;;3.55;;
51800;SDS011;37855;53.204;6.568;2022-07-24T08:02:02;4.63;;;3.40;;
51800;SDS011;37855;53.204;6.568;2022-07-24T08:04:27;5.85;;;3.28;;
51800;SDS011;37855;53.204;6.568;2022-07-24T08:06:53;7.57;;;3.40;;
51800;SDS011;37855;53.204;6.568;2022-07-24T08:09:19;5.38;;;3.25;;
51800;SDS011;37855;53.204;6.568;2022-07-24T08:11:46;6.07;;;3.60;;
51800;SDS011;37855;53.204;6.568;2022-07-24T08:14:11;6.57;;;3.40;;
51800;SDS011;37855;53.204;6.568;2022-07-24T08:16:37;7.97;;;3.40;;
51800;SDS011;37855;53.204;6.568;2022-07-24T08:19:03;11.77;;;3.63;;
51800;SDS011;37855;53.204;6.568;2022-07-24T08:21:28;5.45;;;3.05;;
51800;SDS011;37855;53.204;6.568;2022-07-24T08:23:54;6.90;;;3.65;;
51800;SDS011;37855;53.204;6.568;2022-07-24T08:26:20;6.50;;;3.22;;
51800;SDS011;37855;53.204;6.568;2022-07-24T08:28:45;11.20;;;3.35;;
51800;SDS011;37855;53.204;6.568;2022-07-24T08:31:11;6.18;;;3.10;;
51800;SDS011;37855;53.204;6.568;2022-07-24T08:33:38;7.38;;;3.80;;
51800;SDS011;37855;53.204;6.568;2022-07-24T08:36:03;6.05;;;3.20;;
51800;SDS011;37855;53.204;6.568;2022-07-24T08:38:29;7.05;;;3.40;;
51800;SDS011;37855;53.204;6.568;2022-07-24T08:40:55;8.40;;;3.53;;
51800;SDS011;37855;53.204;6.568;2022-07-24T08:43:21;7.90;;;3.70;;
51800;SDS011;37855;53.204;6.568;2022-07-24T08:45:46;4.47;;;3.05;;
51800;SDS011;37855;53.204;6.568;2022-07-24T08:48:14;5.55;;;3.67;;
51800;SDS011;37855;53.204;6.568;2022-07-24T08:50:41;9.07;;;3.65;;
51800;SDS011;37855;53.204;6.568;2022-07-24T08:53:07;10.43;;;3.88;;
51800;SDS011;37855;53.204;6.568;2022-07-24T08:55:34;9.27;;;3.88;;
51800;SDS011;37855;53.204;6.568;2022-07-24T08:58:00;5.80;;;3.25;;
51800;SDS011;37855;53.204;6.568;2022-07-24T09:00:27;6.95;;;3.80;;
51800;SDS011;37855;53.204;6.568;2022-07-24T09:02:54;6.13;;;3.63;;
51800;SDS011;37855;53.204;6.568;2022-07-24T09:05:20;5.43;;;3.35;;
51800;SDS011;37855;53.204;6.568;2022-07-24T09:07:46;5.68;;;3.53;;
51800;SDS011;37855;53.204;6.568;2022-07-24T09:10:15;4.68;;;3.50;;
51800;SDS011;37855;53.204;6.568;2022-07-24T09:12:43;6.80;;;3.53;;
51800;SDS011;37855;53.204;6.568;2022-07-24T09:15:16;7.35;;;3.42;;
51800;SDS011;37855;53.204;6.568;2022-07-24T09:17:50;7.78;;;3.58;;
51800;SDS011;37855;53.204;6.568;2022-07-24T09:20:20;17.13;;;3.72;;
51800;SDS011;37855;53.204;6.568;2022-07-24T09:22:47;8.02;;;3.38;;
51800;SDS011;37855;53.204;6.568;2022-07-24T09:27:59;6.35;;;3.70;;
51800;SDS011;37855;53.204;6.568;2022-07-24T09:30:33;6.22;;;3.58;;
51800;SDS011;37855;53.204;6.568;2022-07-24T09:33:07;6.60;;;3.50;;
51800;SDS011;37855;53.204;6.568;2022-07-24T09:38:17;7.97;;;3.30;;
51800;SDS011;37855;53.204;6.568;2022-07-24T09:40:49;6.20;;;3.55;;
51800;SDS011;37855;53.204;6.568;2022-07-24T09:43:32;9.65;;;3.63;;
51800;SDS011;37855;53.204;6.568;2022-07-24T09:46:00;8.43;;;3.47;;
51800;SDS011;37855;53.204;6.568;2022-07-24T09:48:31;9.63;;;3.10;;
51800;SDS011;37855;53.204;6.568;2022-07-24T09:51:05;4.82;;;2.95;;
51800;SDS011;37855;53.204;6.568;2022-07-24T09:53:34;11.25;;;3.50;;
51800;SDS011;37855;53.204;6.568;2022-07-24T09:58:39;5.40;;;3.05;;
51800;SDS011;37855;53.204;6.568;2022-07-24T10:01:13;4.38;;;2.60;;
51800;SDS011;37855;53.204;6.568;2022-07-24T10:03:41;10.48;;;3.00;;
51800;SDS011;37855;53.204;6.568;2022-07-24T10:06:10;5.82;;;2.70;;
51800;SDS011;37855;53.204;6.568;2022-07-24T10:08:40;6.95;;;2.60;;
51800;SDS011;37855;53.204;6.568;2022-07-24T10:11:07;5.95;;;2.80;;
51800;SDS011;37855;53.204;6.568;2022-07-24T10:13:33;7.03;;;2.60;;
51800;SDS011;37855;53.204;6.568;2022-07-24T10:21:17;7.30;;;2.53;;
51800;SDS011;37855;53.204;6.568;2022-07-24T10:26:35;9.40;;;2.45;;
51800;SDS011;37855;53.204;6.568;2022-07-24T10:29:10;5.53;;;2.67;;
51800;SDS011;37855;53.204;6.568;2022-07-24T10:31:40;13.43;;;2.80;;
51800;SDS011;37855;53.204;6.568;2022-07-24T10:36:55;3.90;;;2.30;;
51800;SDS011;37855;53.204;6.568;2022-07-24T10:42:27;5.75;;;2.40;;
51800;SDS011;37855;53.204;6.568;2022-07-24T10:47:44;5.47;;;2.40;;
51800;SDS011;37855;53.204;6.568;2022-07-24T10:50:11;7.13;;;2.50;;
51800;SDS011;37855;53.204;6.568;2022-07-24T10:52:39;7.03;;;2.55;;
51800;SDS011;37855;53.204;6.568;2022-07-24T11:03:23;9.18;;;2.60;;
51800;SDS011;37855;53.204;6.568;2022-07-24T11:05:43;6.80;;;2.40;;
51800;SDS011;37855;53.204;6.568;2022-07-24T11:08:28;4.50;;;2.20;;
51800;SDS011;37855;53.204;6.568;2022-07-24T11:11:01;4.85;;;2.38;;
51800;SDS011;37855;53.204;6.568;2022-07-24T11:26:56;7.93;;;2.50;;
51800;SDS011;37855;53.204;6.568;2022-07-24T11:29:41;5.68;;;2.40;;
51800;SDS011;37855;53.204;6.568;2022-07-24T11:32:08;5.43;;;2.30;;
51800;SDS011;37855;53.204;6.568;2022-07-24T11:34:42;3.72;;;2.58;;
51800;SDS011;37855;53.204;6.568;2022-07-24T11:37:12;9.68;;;2.40;;
51800;SDS011;37855;53.204;6.568;2022-07-24T11:39:39;6.30;;;2.22;;
51800;SDS011;37855;53.204;6.568;2022-07-24T11:42:07;6.05;;;2.05;;
51800;SDS011;37855;53.204;6.568;2022-07-24T11:44:35;5.72;;;2.50;;
51800;SDS011;37855;53.204;6.568;2022-07-24T11:47:12;19.83;;;2.85;;
51800;SDS011;37855;53.204;6.568;2022-07-24T11:49:53;6.15;;;2.70;;
51800;SDS011;37855;53.204;6.568;2022-07-24T11:52:24;6.88;;;2.45;;
51800;SDS011;37855;53.204;6.568;2022-07-24T11:54:58;10.32;;;2.85;;
51800;SDS011;37855;53.204;6.568;2022-07-24T11:57:37;11.13;;;2.30;;
51800;SDS011;37855;53.204;6.568;2022-07-24T12:00:05;7.07;;;2.30;;
51800;SDS011;37855;53.204;6.568;2022-07-24T12:02:37;9.75;;;2.50;;
51800;SDS011;37855;53.204;6.568;2022-07-24T12:07:54;9.05;;;2.80;;
51800;SDS011;37855;53.204;6.568;2022-07-24T12:10:24;6.07;;;2.55;;
51800;SDS011;37855;53.204;6.568;2022-07-24T12:12:51;5.13;;;2.42;;
51800;SDS011;37855;53.204;6.568;2022-07-24T12:15:18;4.72;;;2.10;;
51800;SDS011;37855;53.204;6.568;2022-07-24T12:20:36;7.40;;;2.20;;
51800;SDS011;37855;53.204;6.568;2022-07-24T12:23:10;5.85;;;2.30;;
51800;SDS011;37855;53.204;6.568;2022-07-24T12:25:38;6.27;;;2.40;;
51800;SDS011;37855;53.204;6.568;2022-07-24T12:30:47;5.72;;;2.80;;
51800;SDS011;37855;53.204;6.568;2022-07-24T12:38:34;8.13;;;3.08;;
51800;SDS011;37855;53.204;6.568;2022-07-24T12:41:02;6.40;;;2.30;;
51800;SDS011;37855;53.204;6.568;2022-07-24T12:43:28;6.00;;;2.50;;
51800;SDS011;37855;53.204;6.568;2022-07-24T12:46:04;5.10;;;2.20;;
51800;SDS011;37855;53.204;6.568;2022-07-24T12:48:33;6.45;;;1.95;;
51800;SDS011;37855;53.204;6.568;2022-07-24T12:53:36;6.90;;;2.20;;
51800;SDS011;37855;53.204;6.568;2022-07-24T12:56:08;4.93;;;2.30;;
51800;SDS011;37855;53.204;6.568;2022-07-24T13:01:26;5.28;;;2.30;;
51800;SDS011;37855;53.204;6.568;2022-07-24T13:04:08;5.60;;;2.65;;
51800;SDS011;37855;53.204;6.568;2022-07-24T13:06:36;3.58;;;2.28;;
51800;SDS011;37855;53.204;6.568;2022-07-24T13:09:06;7.72;;;2.45;;
51800;SDS011;37855;53.204;6.568;2022-07-24T13:11:34;9.57;;;2.65;;
51800;SDS011;37855;53.204;6.568;2022-07-24T13:14:01;4.00;;;2.30;;
51800;SDS011;37855;53.204;6.568;2022-07-24T13:16:28;5.28;;;2.33;;
51800;SDS011;37855;53.204;6.568;2022-07-24T13:18:55;4.65;;;2.50;;
51800;SDS011;37855;53.204;6.568;2022-07-24T13:21:21;5.03;;;2.40;;
51800;SDS011;37855;53.204;6.568;2022-07-24T13:23:47;7.72;;;2.35;;
51800;SDS011;37855;53.204;6.568;2022-07-24T13:26:14;3.83;;;2.20;;
51800;SDS011;37855;53.204;6.568;2022-07-24T13:28:40;5.55;;;2.28;;
51800;SDS011;37855;53.204;6.568;2022-07-24T13:31:06;7.57;;;2.53;;
51800;SDS011;37855;53.204;6.568;2022-07-24T13:33:32;4.90;;;2.13;;
51800;SDS011;37855;53.204;6.568;2022-07-24T13:35:57;7.95;;;2.30;;
51800;SDS011;37855;53.204;6.568;2022-07-24T13:38:23;5.57;;;2.78;;
51800;SDS011;37855;53.204;6.568;2022-07-24T13:40:48;7.10;;;2.60;;
51800;SDS011;37855;53.204;6.568;2022-07-24T13:43:14;4.78;;;2.38;;
51800;SDS011;37855;53.204;6.568;2022-07-24T13:45:40;8.23;;;2.55;;
51800;SDS011;37855;53.204;6.568;2022-07-24T13:48:05;5.35;;;2.40;;
51800;SDS011;37855;53.204;6.568;2022-07-24T13:50:31;8.07;;;2.97;;
51800;SDS011;37855;53.204;6.568;2022-07-24T13:52:56;5.63;;;2.50;;
51800;SDS011;37855;53.204;6.568;2022-07-24T13:55:22;6.60;;;2.53;;
51800;SDS011;37855;53.204;6.568;2022-07-24T13:57:51;6.18;;;2.30;;
51800;SDS011;37855;53.204;6.568;2022-07-24T14:00:16;6.90;;;2.38;;
51800;SDS011;37855;53.204;6.568;2022-07-24T14:02:42;4.55;;;2.60;;
51800;SDS011;37855;53.204;6.568;2022-07-24T14:05:08;5.53;;;2.45;;
51800;SDS011;37855;53.204;6.568;2022-07-24T14:07:34;4.72;;;2.45;;
51800;SDS011;37855;53.204;6.568;2022-07-24T14:10:01;4.68;;;2.10;;
51800;SDS011;37855;53.204;6.568;2022-07-24T14:12:27;5.20;;;2.40;;
51800;SDS011;37855;53.204;6.568;2022-07-24T14:14:53;5.40;;;2.55;;
51800;SDS011;37855;53.204;6.568;2022-07-24T14:17:19;4.65;;;2.40;;
51800;SDS011;37855;53.204;6.568;2022-07-24T14:19:45;3.60;;;2.25;;
51800;SDS011;37855;53.204;6.568;2022-07-24T14:22:14;6.50;;;2.20;;
51800;SDS011;37855;53.204;6.568;2022-07-24T14:24:39;5.13;;;2.35;;
51800;SDS011;37855;53.204;6.568;2022-07-24T14:27:05;4.85;;;2.33;;
51800;SDS011;37855;53.204;6.568;2022-07-24T14:29:30;6.07;;;2.70;;
51800;SDS011;37855;53.204;6.568;2022-07-24T14:31:56;3.45;;;2.25;;
51800;SDS011;37855;53.204;6.568;2022-07-24T14:34:22;6.45;;;2.60;;
51800;SDS011;37855;53.204;6.568;2022-07-24T14:36:47;6.32;;;2.50;;
51800;SDS011;37855;53.204;6.568;2022-07-24T14:39:13;5.25;;;2.50;;
51800;SDS011;37855;53.204;6.568;2022-07-24T14:41:39;6.68;;;2.65;;
51800;SDS011;37855;53.204;6.568;2022-07-24T14:44:05;6.32;;;2.30;;
51800;SDS011;37855;53.204;6.568;2022-07-24T14:46:31;6.63;;;2.60;;
51800;SDS011;37855;53.204;6.568;2022-07-24T14:48:57;4.28;;;2.42;;
51800;SDS011;37855;53.204;6.568;2022-07-24T14:51:23;4.72;;;2.50;;
51800;SDS011;37855;53.204;6.568;2022-07-24T14:53:48;4.00;;;2.38;;
51800;SDS011;37855;53.204;6.568;2022-07-24T14:56:14;4.57;;;2.45;;
51800;SDS011;37855;53.204;6.568;2022-07-24T14:58:39;6.35;;;2.80;;
51800;SDS011;37855;53.204;6.568;2022-07-24T15:01:05;6.45;;;2.60;;
51800;SDS011;37855;53.204;6.568;2022-07-24T15:03:31;4.32;;;2.50;;
51800;SDS011;37855;53.204;6.568;2022-07-24T15:05:56;6.78;;;2.70;;
51800;SDS011;37855;53.204;6.568;2022-07-24T15:08:22;7.18;;;2.58;;
51800;SDS011;37855;53.204;6.568;2022-07-24T15:10:48;4.85;;;2.53;;
51800;SDS011;37855;53.204;6.568;2022-07-24T15:13:13;7.07;;;2.78;;
51800;SDS011;37855;53.204;6.568;2022-07-24T15:15:39;4.95;;;2.85;;
51800;SDS011;37855;53.204;6.568;2022-07-24T15:18:04;4.18;;;2.45;;
51800;SDS011;37855;53.204;6.568;2022-07-24T15:20:30;4.28;;;2.55;;
51800;SDS011;37855;53.204;6.568;2022-07-24T15:22:56;5.63;;;2.50;;
51800;SDS011;37855;53.204;6.568;2022-07-24T15:25:21;5.07;;;2.50;;
51800;SDS011;37855;53.204;6.568;2022-07-24T15:27:52;5.05;;;2.45;;
51800;SDS011;37855;53.204;6.568;2022-07-24T15:30:19;4.15;;;2.55;;
51800;SDS011;37855;53.204;6.568;2022-07-24T15:32:45;5.45;;;2.83;;
51800;SDS011;37855;53.204;6.568;2022-07-24T15:35:10;5.10;;;3.30;;
51800;SDS011;37855;53.204;6.568;2022-07-24T15:37:36;4.72;;;2.70;;
51800;SDS011;37855;53.204;6.568;2022-07-24T15:40:02;4.35;;;2.55;;
51800;SDS011;37855;53.204;6.568;2022-07-24T15:42:28;5.68;;;2.80;;
51800;SDS011;37855;53.204;6.568;2022-07-24T15:44:54;4.50;;;2.70;;
51800;SDS011;37855;53.204;6.568;2022-07-24T15:47:19;6.35;;;2.30;;
51800;SDS011;37855;53.204;6.568;2022-07-24T15:49:45;4.55;;;2.58;;
51800;SDS011;37855;53.204;6.568;2022-07-24T15:52:11;4.80;;;2.53;;